Winnipeg James Armstrong Richardson International Airport
CYWG : rendu visible

Aérodrome :











RETROUVEZ-NOUS SUR...

 
LOGIN :

S'inscrire | Disclaimer

   EN    FR    IT 

 









Légende :    VFR   VFR Marginal   IFR   IFR Intensif   IFR Très Intensif
Visi : 
Plafond : 
>= 8 km
>= 3000ft
5 à 8 km
1000 à 3000 ft
1500m à 5 km
500 à 1000 ft
800 à 1500m
200 à 500 ft
< 800m
< 200 ft
Symboles :   Orages  Brouillard  Fortes neiges  Fortes précipitations  Vent > 20 kt






- Altitude de l'aérodrome : 783 ft
- Code IATA : YWG


CYWG - Winnipeg James Armstrong Richardson International

DERNIER METAR :
  • 310400Z 21009KT 15SM FEW050 15/00 A3017 RMK SC1 SLP223

METARs EXPIRÉS :
  • 310300Z 21008KT 15SM FEW050 15/01 A3017 RMK SC1 SLP224 DENSITY ALT 800FT
  • 310200Z 22007KT 15SM SKC 18/01 A3017 RMK SLP223 DENSITY ALT 1000FT

TAF TAF CYWG
Valide du 31 à 00h jusqu'au 01 à 00h UTC


302338Z 3100/3124 30008KT P6SM FEW050
BECMG 3101/3103 21008KT
FM311400 18012KT P6SM SKC
BECMG 3116/3118 18018KT BKN220
FM312200 15018KT P6SM SCT060 BKN180 RMK NXT FCST BY 310600Z
FIR CZWG / Amérique du Nord



MET'MAP, la Météo Aéronautique d'un coup d'oeil ! - Copyright ORBIFLY Décembre 2007 - Disclaimer

ORBIFLY MET'MAP TEAM :

Programmation & Développement : Alexandra Zaïnal
Sur une idée originale de : Baudouin d'Aumeries
Assistance à la programmation : Marc-Olivier Méhu
Soutien technique & logistique : Manuel Goepfert

Contact : metmap@orbifly.com




SOURCES & CREDITS :

   NOAA       Earth
Advisory